createdAt,value
2023-06-26T00:01:23.998Z,6.73
2023-06-26T00:04:27.838Z,5.77
2023-06-26T00:07:32.217Z,5.97
2023-06-26T00:10:36.933Z,5.90
2023-06-26T00:13:43.028Z,6.07
2023-06-26T00:16:46.706Z,6.00
2023-06-26T00:19:50.590Z,6.07
2023-06-26T00:22:54.967Z,6.47
2023-06-26T00:25:58.702Z,6.23
2023-06-26T00:29:03.764Z,6.27
2023-06-26T00:32:09.068Z,6.17
2023-06-26T00:35:12.793Z,6.53
2023-06-26T00:38:16.981Z,6.67
2023-06-26T00:41:20.942Z,6.67
2023-06-26T00:44:26.084Z,6.37
2023-06-26T00:47:30.094Z,7.40
2023-06-26T00:50:34.277Z,7.40
2023-06-26T00:53:38.508Z,5.80
2023-06-26T00:56:43.442Z,6.73
2023-06-26T00:59:49.198Z,6.53
2023-06-26T01:02:53.127Z,6.90
2023-06-26T01:06:00.436Z,6.00
2023-06-26T01:09:05.172Z,6.93
2023-06-26T01:12:09.355Z,6.60
2023-06-26T01:15:14.856Z,7.17
2023-06-26T01:18:18.707Z,7.40
2023-06-26T01:21:22.613Z,6.73
2023-06-26T01:24:37.877Z,7.20
2023-06-26T01:27:44.944Z,6.57
2023-06-26T01:30:50.590Z,6.83
2023-06-26T01:33:55.341Z,5.90
2023-06-26T01:36:59.026Z,7.80
2023-06-26T01:40:06.508Z,7.73
2023-06-26T01:43:20.892Z,7.33
2023-06-26T01:46:29.763Z,8.43
2023-06-26T01:49:49.719Z,7.73
2023-06-26T01:53:07.217Z,7.50
2023-06-26T01:56:18.014Z,7.17
2023-06-26T01:59:24.845Z,7.67
2023-06-26T02:02:30.915Z,7.40
2023-06-26T02:05:34.942Z,7.00
2023-06-26T02:08:39.027Z,7.50
2023-06-26T02:11:42.734Z,7.57
2023-06-26T02:14:47.895Z,7.80
2023-06-26T02:17:51.660Z,7.43
2023-06-26T02:20:55.407Z,6.83
2023-06-26T02:23:59.183Z,8.03
2023-06-26T02:27:02.867Z,7.77
2023-06-26T02:30:11.015Z,8.27
2023-06-26T02:33:14.790Z,7.17
2023-06-26T02:36:18.789Z,6.70
2023-06-26T02:39:22.782Z,8.00
2023-06-26T02:42:26.615Z,7.40
2023-06-26T02:45:31.775Z,8.57
2023-06-26T02:48:35.680Z,8.10
2023-06-26T02:51:39.435Z,7.70
2023-06-26T02:54:43.232Z,7.97
2023-06-26T02:57:46.979Z,7.07
2023-06-26T03:00:52.321Z,7.03
2023-06-26T03:03:57.216Z,8.17
2023-06-26T03:07:01.154Z,7.23
2023-06-26T03:10:04.965Z,7.43
2023-06-26T03:13:08.764Z,7.47
2023-06-26T03:16:13.979Z,7.97
2023-06-26T03:19:17.683Z,7.27
2023-06-26T03:22:21.372Z,8.53
2023-06-26T03:25:25.187Z,7.83
2023-06-26T03:28:30.029Z,7.37
2023-06-26T03:31:35.774Z,7.53
2023-06-26T03:34:40.627Z,7.17
2023-06-26T03:37:44.456Z,7.87
2023-06-26T03:40:48.280Z,6.97
2023-06-26T03:43:52.131Z,7.03
2023-06-26T03:46:57.304Z,7.43
2023-06-26T03:50:00.968Z,7.13
2023-06-26T03:53:04.743Z,7.07
2023-06-26T03:56:08.484Z,7.03
2023-06-26T03:59:12.958Z,8.07
2023-06-26T04:02:18.134Z,7.63
2023-06-26T04:05:21.991Z,7.23
2023-06-26T04:08:27.898Z,6.60
2023-06-26T04:11:32.267Z,6.90
2023-06-26T04:14:36.087Z,6.63
2023-06-26T04:17:41.206Z,7.47
2023-06-26T04:21:09.864Z,6.53
2023-06-26T04:24:15.622Z,6.43
2023-06-26T04:27:19.917Z,7.07
2023-06-26T04:30:23.875Z,6.07
2023-06-26T04:33:29.597Z,5.63
2023-06-26T04:36:34.568Z,6.90
2023-06-26T04:39:39.466Z,6.47
2023-06-26T04:42:43.218Z,6.00
2023-06-26T04:45:47.153Z,5.60
2023-06-26T04:48:52.301Z,5.93
2023-06-26T04:51:56.736Z,6.03
2023-06-26T04:55:00.495Z,5.73
2023-06-26T04:58:04.595Z,5.57
2023-06-26T05:01:09.167Z,5.50
2023-06-26T05:04:14.470Z,5.60
2023-06-26T05:07:18.193Z,5.60
2023-06-26T05:10:22.798Z,5.77
2023-06-26T05:13:27.202Z,5.50
2023-06-26T05:16:31.002Z,5.50
2023-06-26T05:19:36.340Z,5.53
2023-06-26T05:22:41.680Z,4.53
2023-06-26T05:25:46.184Z,4.80
2023-06-26T05:28:52.222Z,4.83
2023-06-26T05:31:58.318Z,5.50
2023-06-26T05:35:06.223Z,5.30
2023-06-26T05:38:10.668Z,5.17
2023-06-26T05:41:15.358Z,5.27
2023-06-26T05:44:19.173Z,4.57
2023-06-26T05:47:23.168Z,4.70
2023-06-26T05:50:30.422Z,5.20
2023-06-26T05:53:34.781Z,4.67
2023-06-26T05:56:41.003Z,4.50
2023-06-26T05:59:47.124Z,4.97
2023-06-26T06:02:55.648Z,4.37
2023-06-26T06:06:00.880Z,4.40
2023-06-26T06:09:04.741Z,4.57
2023-06-26T06:12:09.899Z,4.27
2023-06-26T06:15:13.730Z,4.60
2023-06-26T06:18:17.569Z,4.63
2023-06-26T06:21:22.914Z,4.57
2023-06-26T06:24:26.637Z,4.83
2023-06-26T06:27:30.531Z,4.70
2023-06-26T06:33:45.068Z,5.03
2023-06-26T06:36:51.124Z,4.90
2023-06-26T06:39:55.132Z,4.77
2023-06-26T06:42:58.862Z,4.50
2023-06-26T06:46:02.614Z,4.93
2023-06-26T06:49:06.824Z,4.63
2023-06-26T06:52:12.036Z,4.90
2023-06-26T06:55:15.712Z,4.47
2023-06-26T06:58:21.291Z,5.13
2023-06-26T07:01:24.951Z,5.10
2023-06-26T07:04:28.825Z,4.90
2023-06-26T07:07:36.110Z,5.40
2023-06-26T07:10:40.098Z,5.07
2023-06-26T07:13:46.283Z,5.30
2023-06-26T07:16:50.121Z,4.73
2023-06-26T07:19:54.040Z,6.17
2023-06-26T07:22:59.287Z,6.17
2023-06-26T07:26:03.107Z,5.53
2023-06-26T07:29:07.134Z,6.10
2023-06-26T07:32:13.166Z,6.60
2023-06-26T07:35:21.585Z,7.00
2023-06-26T07:38:26.724Z,6.57
2023-06-26T07:41:32.534Z,5.90
2023-06-26T07:44:36.360Z,5.83
2023-06-26T07:47:40.951Z,6.60
2023-06-26T07:50:44.704Z,5.93
2023-06-26T07:53:50.035Z,6.07
2023-06-26T07:56:59.415Z,6.20
2023-06-26T08:00:03.315Z,5.83
2023-06-26T08:03:10.579Z,5.83
2023-06-26T08:06:16.730Z,5.40
2023-06-26T08:09:24.638Z,6.30
2023-06-26T08:12:28.429Z,6.87
2023-06-26T08:15:36.841Z,7.37
2023-06-26T08:18:40.589Z,7.33
2023-06-26T08:21:45.658Z,7.77
2023-06-26T08:24:50.752Z,8.33
2023-06-26T08:27:55.207Z,8.17
2023-06-26T08:30:58.963Z,6.57
2023-06-26T08:34:02.892Z,6.30
2023-06-26T08:37:10.544Z,6.63
2023-06-26T08:40:19.328Z,6.80
2023-06-26T08:43:24.469Z,5.80
2023-06-26T08:46:28.719Z,6.47
2023-06-26T08:49:45.397Z,6.00
2023-06-26T08:52:57.049Z,5.67
2023-06-26T08:56:05.697Z,6.07
2023-06-26T08:59:11.408Z,5.50
2023-06-26T09:02:15.891Z,6.30
2023-06-26T09:05:20.350Z,5.97
2023-06-26T09:08:24.195Z,7.63
2023-06-26T09:11:29.610Z,8.23
2023-06-26T09:14:33.539Z,9.87
2023-06-26T09:17:42.908Z,8.33
2023-06-26T09:20:47.224Z,10.20
2023-06-26T09:23:51.971Z,9.30
2023-06-26T09:26:57.255Z,10.87
2023-06-26T09:30:01.810Z,9.10
2023-06-26T09:33:18.151Z,8.23
2023-06-26T09:36:23.332Z,7.90
2023-06-26T09:39:27.564Z,8.63
2023-06-26T09:42:33.172Z,6.50
2023-06-26T09:45:38.597Z,6.33
2023-06-26T09:48:42.364Z,4.83
2023-06-26T09:51:46.213Z,5.10
2023-06-26T09:54:50.799Z,4.87
2023-06-26T09:58:04.598Z,3.73
2023-06-26T10:01:10.851Z,3.67
2023-06-26T10:04:15.603Z,3.07
2023-06-26T10:07:20.522Z,2.67
2023-06-26T10:10:27.078Z,3.00
2023-06-26T10:13:40.938Z,2.60
2023-06-26T10:16:47.093Z,2.30
2023-06-26T10:19:52.657Z,1.53
2023-06-26T10:23:02.492Z,2.00
2023-06-26T10:26:10.102Z,2.20
2023-06-26T10:29:19.839Z,1.83
2023-06-26T10:32:27.892Z,1.80
2023-06-26T10:35:33.605Z,1.53
2023-06-26T10:38:53.139Z,1.30
2023-06-26T10:42:11.828Z,1.63
2023-06-26T10:45:21.850Z,1.43
2023-06-26T10:48:31.699Z,1.40
2023-06-26T10:51:35.453Z,1.20
2023-06-26T10:54:41.360Z,1.40
2023-06-26T10:57:50.511Z,1.33
2023-06-26T11:01:23.559Z,1.07
2023-06-26T11:04:42.746Z,1.27
2023-06-26T11:08:06.718Z,1.03
2023-06-26T11:11:10.575Z,1.37
2023-06-26T11:14:14.956Z,1.07
2023-06-26T11:17:22.058Z,1.20
2023-06-26T11:20:25.997Z,0.77
2023-06-26T11:23:30.292Z,1.03
2023-06-26T11:26:40.454Z,0.83
2023-06-26T11:29:51.008Z,0.80
2023-06-26T11:33:05.357Z,0.83
2023-06-26T11:36:12.361Z,1.07
2023-06-26T11:39:16.113Z,1.20
2023-06-26T11:42:20.107Z,0.97
2023-06-26T11:45:35.246Z,1.00
2023-06-26T11:48:41.531Z,1.30
2023-06-26T11:51:49.231Z,1.60
2023-06-26T11:54:53.031Z,1.13
2023-06-26T11:58:00.015Z,1.13
2023-06-26T12:01:03.980Z,0.97
2023-06-26T12:04:18.264Z,0.80
2023-06-26T12:07:25.263Z,1.20
2023-06-26T12:10:31.064Z,1.40
2023-06-26T12:13:36.921Z,1.20
2023-06-26T12:16:41.881Z,1.73
2023-06-26T12:19:50.864Z,1.43
2023-06-26T12:22:54.758Z,1.10
2023-06-26T12:25:58.432Z,1.17
2023-06-26T12:29:07.340Z,1.17
2023-06-26T12:32:12.885Z,1.13
2023-06-26T12:35:18.375Z,1.90
2023-06-26T12:38:22.631Z,1.20
2023-06-26T12:41:27.549Z,1.10
2023-06-26T12:44:34.001Z,1.07
2023-06-26T12:47:39.601Z,1.10
2023-06-26T12:50:49.120Z,1.73
2023-06-26T12:53:53.383Z,1.10
2023-06-26T12:56:57.333Z,1.30
2023-06-26T13:00:01.681Z,1.37
2023-06-26T13:03:09.259Z,1.27
2023-06-26T13:06:16.355Z,1.60
2023-06-26T13:09:20.282Z,0.93
2023-06-26T13:12:24.119Z,1.30
2023-06-26T13:15:28.197Z,1.50
2023-06-26T13:18:31.884Z,0.97
2023-06-26T13:21:38.066Z,1.17
2023-06-26T13:24:42.324Z,1.13
2023-06-26T13:27:46.158Z,1.30
2023-06-26T13:30:50.512Z,1.37
2023-06-26T13:33:54.626Z,1.60
2023-06-26T13:37:02.127Z,1.13
2023-06-26T13:40:10.616Z,1.17
2023-06-26T13:43:15.168Z,1.07
2023-06-26T13:46:21.610Z,1.43
2023-06-26T13:49:25.402Z,1.40
2023-06-26T13:52:30.583Z,1.10
2023-06-26T13:55:35.051Z,1.40
2023-06-26T13:58:39.750Z,1.20
2023-06-26T14:01:45.285Z,1.47
2023-06-26T14:04:49.150Z,1.30
2023-06-26T14:07:56.047Z,1.20
2023-06-26T14:11:02.359Z,1.30
2023-06-26T14:14:06.189Z,1.33
2023-06-26T14:17:11.869Z,1.43
2023-06-26T14:20:15.905Z,1.00
2023-06-26T14:23:21.086Z,1.40
2023-06-26T14:26:24.844Z,3.17
2023-06-26T14:29:28.553Z,1.37
2023-06-26T14:32:32.425Z,1.50
2023-06-26T14:35:36.949Z,0.80
2023-06-26T14:38:42.010Z,0.97
2023-06-26T14:41:47.513Z,1.13
2023-06-26T14:44:52.723Z,0.97
2023-06-26T14:47:57.101Z,1.40
2023-06-26T14:51:02.131Z,1.27
2023-06-26T14:54:07.361Z,1.10
2023-06-26T14:57:12.243Z,1.20
2023-06-26T15:00:18.257Z,1.30
2023-06-26T15:03:22.083Z,1.27
2023-06-26T15:06:25.998Z,1.10
2023-06-26T15:09:33.168Z,1.23
2023-06-26T15:12:37.313Z,1.00
2023-06-26T15:15:52.737Z,1.50
2023-06-26T15:18:56.556Z,0.93
2023-06-26T15:22:00.234Z,1.00
2023-06-26T15:25:06.559Z,1.10
2023-06-26T15:28:10.834Z,1.23
2023-06-26T15:31:16.242Z,1.50
2023-06-26T15:34:19.883Z,0.70
2023-06-26T15:37:23.591Z,1.43
2023-06-26T15:40:28.726Z,1.10
2023-06-26T15:43:33.789Z,1.23
2023-06-26T15:46:37.576Z,1.20
2023-06-26T15:49:41.495Z,0.83
2023-06-26T15:52:45.334Z,0.90
2023-06-26T15:55:50.595Z,0.73
2023-06-26T15:58:54.280Z,1.23
2023-06-26T16:01:58.089Z,0.80
2023-06-26T16:05:02.665Z,0.70
2023-06-26T16:08:07.251Z,0.60
2023-06-26T16:11:12.669Z,1.10
2023-06-26T16:14:16.941Z,0.90
2023-06-26T16:17:20.632Z,1.03
2023-06-26T16:20:24.603Z,0.57
2023-06-26T16:23:28.783Z,0.90
2023-06-26T16:26:34.095Z,0.73
2023-06-26T16:29:37.863Z,0.63
2023-06-26T16:32:41.584Z,0.70
2023-06-26T16:35:45.835Z,0.70
2023-06-26T16:38:49.769Z,0.60
2023-06-26T16:41:56.218Z,0.60
2023-06-26T16:45:00.326Z,0.70
2023-06-26T16:48:04.280Z,0.90
2023-06-26T16:51:08.775Z,0.70
2023-06-26T16:54:12.539Z,0.87
2023-06-26T16:57:17.760Z,0.60
2023-06-26T17:00:21.915Z,1.00
2023-06-26T17:03:25.710Z,1.20
2023-06-26T17:06:30.064Z,1.20
2023-06-26T17:09:33.878Z,0.83
2023-06-26T17:12:40.687Z,0.70
2023-06-26T17:15:51.459Z,1.13
2023-06-26T17:18:55.198Z,0.83
2023-06-26T17:22:00.035Z,1.03
2023-06-26T17:25:05.734Z,1.10
2023-06-26T17:28:10.971Z,1.17
2023-06-26T17:31:14.793Z,1.20
2023-06-26T17:34:18.461Z,1.07
2023-06-26T17:37:24.597Z,1.00
2023-06-26T17:40:28.291Z,1.47
2023-06-26T17:43:33.488Z,1.43
2023-06-26T17:46:37.392Z,1.07
2023-06-26T17:49:41.650Z,1.50
2023-06-26T17:52:45.403Z,1.37
2023-06-26T17:55:49.208Z,1.47
2023-06-26T17:58:54.222Z,1.23
2023-06-26T18:02:00.076Z,1.17
2023-06-26T18:05:04.023Z,1.20
2023-06-26T18:08:07.943Z,1.50
2023-06-26T18:11:11.590Z,1.00
2023-06-26T18:14:17.105Z,1.17
2023-06-26T18:17:20.824Z,1.63
2023-06-26T18:20:24.786Z,1.50
2023-06-26T18:23:28.502Z,1.47
2023-06-26T18:26:33.883Z,1.57
2023-06-26T18:29:39.849Z,1.57
2023-06-26T18:32:45.585Z,1.40
2023-06-26T18:35:49.258Z,2.13
2023-06-26T18:38:52.990Z,1.40
2023-06-26T18:41:56.695Z,1.70
2023-06-26T18:45:01.669Z,1.33
2023-06-26T18:48:06.462Z,2.13
2023-06-26T18:51:12.973Z,1.73
2023-06-26T18:54:18.446Z,1.77
2023-06-26T18:57:22.237Z,1.40
2023-06-26T19:00:29.281Z,1.70
2023-06-26T19:03:33.012Z,1.60
2023-06-26T19:06:36.763Z,1.80
2023-06-26T19:09:40.419Z,2.17
2023-06-26T19:12:44.569Z,1.80
2023-06-26T19:15:50.646Z,1.43
2023-06-26T19:18:55.327Z,1.80
2023-06-26T19:22:00.159Z,1.77
2023-06-26T19:25:04.205Z,1.50
2023-06-26T19:28:07.900Z,1.83
2023-06-26T19:31:13.509Z,1.70
2023-06-26T19:34:17.206Z,2.10
2023-06-26T19:37:20.842Z,1.53
2023-06-26T19:40:24.901Z,2.03
2023-06-26T19:43:28.541Z,1.97
2023-06-26T19:46:33.660Z,1.93
2023-06-26T19:49:37.976Z,1.67
2023-06-26T19:52:42.696Z,1.30
2023-06-26T19:55:46.455Z,2.00
2023-06-26T19:58:50.011Z,1.27
2023-06-26T20:01:55.101Z,1.37
2023-06-26T20:04:58.922Z,1.30
2023-06-26T20:08:03.705Z,1.47
2023-06-26T20:11:08.238Z,1.10
2023-06-26T20:14:11.910Z,1.30
2023-06-26T20:17:17.074Z,1.50
2023-06-26T20:20:20.844Z,2.00
2023-06-26T20:23:24.507Z,1.30
2023-06-26T20:26:28.222Z,1.13
2023-06-26T20:29:32.240Z,1.37
2023-06-26T20:32:37.745Z,1.17
2023-06-26T20:35:42.039Z,1.30
2023-06-26T20:38:45.908Z,1.80
2023-06-26T20:41:50.529Z,1.80
2023-06-26T20:44:58.253Z,1.47
2023-06-26T20:48:04.194Z,1.60
2023-06-26T20:51:08.976Z,2.00
2023-06-26T20:54:13.856Z,1.60
2023-06-26T20:57:18.402Z,1.60
2023-06-26T21:00:24.779Z,1.83
2023-06-26T21:03:30.242Z,1.50
2023-06-26T21:06:33.979Z,1.70
2023-06-26T21:09:37.758Z,2.03
2023-06-26T21:12:41.512Z,1.60
2023-06-26T21:15:45.845Z,1.80
2023-06-26T21:18:50.949Z,2.63
2023-06-26T21:21:55.034Z,1.77
2023-06-26T21:24:58.721Z,1.50
2023-06-26T21:28:02.422Z,1.50
2023-06-26T21:31:06.198Z,1.67
2023-06-26T21:34:12.321Z,1.37
2023-06-26T21:37:16.166Z,1.70
2023-06-26T21:40:19.860Z,1.53
2023-06-26T21:43:23.517Z,1.43
2023-06-26T21:46:27.284Z,1.97
2023-06-26T21:49:33.350Z,1.80
2023-06-26T21:52:37.498Z,2.10
2023-06-26T21:55:41.429Z,1.70
2023-06-26T21:58:45.596Z,1.53
2023-06-26T22:01:49.339Z,1.93
2023-06-26T22:04:54.408Z,2.23
2023-06-26T22:07:58.275Z,1.50
2023-06-26T22:11:02.039Z,1.63
2023-06-26T22:14:05.898Z,1.60
2023-06-26T22:17:09.639Z,2.47
2023-06-26T22:20:16.480Z,1.50
2023-06-26T22:23:20.208Z,1.77
2023-06-26T22:26:23.994Z,2.47
2023-06-26T22:29:27.594Z,1.70
2023-06-26T22:32:31.308Z,2.03
2023-06-26T22:35:36.470Z,2.07
2023-06-26T22:38:40.124Z,1.70
2023-06-26T22:41:44.359Z,1.87
2023-06-26T22:44:47.958Z,2.10
2023-06-26T22:47:51.801Z,1.57
2023-06-26T22:50:58.119Z,1.23
2023-06-26T22:54:02.219Z,1.80
2023-06-26T22:57:06.764Z,1.37
2023-06-26T23:00:12.283Z,1.40
2023-06-26T23:03:16.013Z,1.50
2023-06-26T23:06:23.085Z,1.37
2023-06-26T23:09:26.836Z,1.77
2023-06-26T23:12:30.685Z,2.10
2023-06-26T23:15:40.555Z,1.70
2023-06-26T23:18:44.636Z,1.80
2023-06-26T23:21:49.659Z,2.10
2023-06-26T23:24:58.729Z,1.50
2023-06-26T23:28:04.126Z,1.87
2023-06-26T23:31:07.891Z,2.00
2023-06-26T23:34:13.889Z,2.10
2023-06-26T23:37:27.167Z,2.07
2023-06-26T23:40:33.462Z,1.90
2023-06-26T23:43:37.426Z,2.23
2023-06-26T23:46:42.770Z,1.90
2023-06-26T23:49:46.545Z,2.00
2023-06-26T23:52:51.605Z,2.17
2023-06-26T23:55:55.299Z,2.07
2023-06-26T23:58:59.413Z,1.90
